Time;durP1;ratioP1;P1;durP2;ratioP2;P2;SDS_P1;SDS_P2;PMS_P1;PMS_P2;Temp;Humidity;BMP_temperature;BMP_pressure;BME280_temperature;BME280_humidity;BME280_pressure;Samples;Min_cycle;Max_cycle;Signal;HPM_P1;HPM_P2
2022/09/28 00:03:28;;;;;;;10.73;9.63;;;19.40;70.00;;;;;;6083425;23;20168;-83
2022/09/28 00:09:55;;;;;;;11.48;10.27;;;19.40;70.00;;;;;;6083528;23;20149;-83
2022/09/28 00:13:13;;;;;;;10.90;9.80;;;19.40;69.80;;;;;;6082371;23;20164;-83
2022/09/28 00:22:47;;;;;;;11.43;10.23;;;19.40;70.00;;;;;;6026546;23;20173;-83
2022/09/28 00:32:02;;;;;;;10.98;9.88;;;19.30;70.10;;;;;;6053502;23;20210;-84
2022/09/28 00:34:57;;;;;;;11.18;10.07;;;19.30;70.20;;;;;;5983555;23;20205;-83
2022/09/28 00:37:23;;;;;;;11.68;10.27;;;19.30;70.10;;;;;;6005611;23;20194;-84
2022/09/28 00:43:50;;;;;;;11.82;9.95;;;19.30;70.20;;;;;;6052298;23;20178;-83
2022/09/28 00:46:33;;;;;;;11.95;10.75;;;19.30;70.10;;;;;;5996318;24;20234;-83
2022/09/28 00:52:36;;;;;;;11.55;10.38;;;19.30;70.10;;;;;;5948068;23;20184;-83
2022/09/28 01:08:55;;;;;;;11.80;10.27;;;19.20;70.60;;;;;;6020581;23;20142;-84
2022/09/28 01:14:54;;;;;;;11.73;10.52;;;19.20;70.60;;;;;;6021206;23;20289;-83
2022/09/28 01:17:58;;;;;;;11.85;10.45;;;19.20;70.70;;;;;;5979318;23;20186;-83
2022/09/28 01:20:46;;;;;;;11.52;10.32;;;19.20;70.40;;;;;;6131624;23;20197;-83
2022/09/28 01:23:46;;;;;;;11.95;10.75;;;19.20;70.80;;;;;;6086205;23;20229;-83
2022/09/28 01:36:59;;;;;;;11.68;10.48;;;19.20;70.90;;;;;;6139783;23;20148;-83
2022/09/28 01:40:09;;;;;;;11.80;10.57;;;19.20;70.80;;;;;;6115595;23;20160;-83
2022/09/28 01:42:39;;;;;;;11.32;10.13;;;19.20;70.70;;;;;;6115875;23;20160;-83
2022/09/28 01:45:15;;;;;;;12.35;10.52;;;19.20;70.50;;;;;;6115163;23;20591;-83
2022/09/28 01:51:49;;;;;;;11.68;10.48;;;19.20;70.70;;;;;;6169701;23;20193;-84
2022/09/28 01:54:43;;;;;;;11.63;10.27;;;19.30;70.60;;;;;;6150987;23;20212;-83
2022/09/28 01:57:24;;;;;;;11.05;9.95;;;19.30;70.50;;;;;;6169094;23;20222;-83
2022/09/28 02:00:17;;;;;;;11.18;10.07;;;19.20;70.50;;;;;;6145747;23;20329;-84
2022/09/28 02:03:01;;;;;;;11.10;9.85;;;19.20;70.40;;;;;;6124990;23;20681;-83
2022/09/28 02:06:03;;;;;;;11.45;10.25;;;19.20;70.30;;;;;;6098191;23;20159;-83
2022/09/28 02:08:33;;;;;;;12.27;10.98;;;19.20;70.50;;;;;;6103636;23;20166;-83
2022/09/28 02:14:42;;;;;;;11.45;10.25;;;19.20;70.50;;;;;;6170538;23;20223;-84
2022/09/28 02:17:22;;;;;;;12.15;10.85;;;19.20;70.70;;;;;;6093140;23;20163;-83
2022/09/28 02:19:57;;;;;;;12.23;10.80;;;19.20;70.70;;;;;;6108578;23;20621;-84
2022/09/28 02:22:42;;;;;;;11.35;10.20;;;19.20;70.70;;;;;;6019575;23;20198;-84
2022/09/28 02:25:38;;;;;;;11.38;10.18;;;19.30;70.80;;;;;;6015578;23;20167;-83
2022/09/28 02:28:18;;;;;;;11.57;10.38;;;19.20;70.50;;;;;;5992203;23;20153;-84
2022/09/28 02:30:45;;;;;;;11.52;10.32;;;19.20;70.70;;;;;;6006543;23;20244;-83
2022/09/28 02:33:19;;;;;;;11.73;10.52;;;19.20;70.70;;;;;;6053327;23;20153;-84
2022/09/28 02:36:06;;;;;;;10.93;9.82;;;19.20;70.80;;;;;;6087144;23;20152;-83
2022/09/28 02:38:51;;;;;;;11.32;9.88;;;19.10;70.80;;;;;;6087390;23;20179;-83
2022/09/28 02:42:02;;;;;;;11.48;10.27;;;19.20;70.90;;;;;;6063868;23;20155;-83
2022/09/28 02:44:59;;;;;;;12.45;10.30;;;19.20;70.70;;;;;;6086599;23;20479;-83
2022/09/28 02:47:52;;;;;;;11.40;10.20;;;19.20;70.80;;;;;;6083923;23;20216;-82
2022/09/28 02:50:47;;;;;;;11.60;10.38;;;19.20;70.80;;;;;;6204793;23;20173;-83
2022/09/28 03:00:10;;;;;;;12.40;10.40;;;19.20;70.90;;;;;;6228157;23;20168;-83
2022/09/28 03:03:03;;;;;;;11.80;10.60;;;19.20;70.80;;;;;;6156422;23;20485;-83
2022/09/28 03:06:09;;;;;;;11.15;9.75;;;19.20;70.80;;;;;;6129756;23;20146;-84
2022/09/28 03:08:42;;;;;;;11.38;10.18;;;19.20;70.80;;;;;;6187290;23;20224;-83
2022/09/28 03:11:38;;;;;;;11.55;10.35;;;19.20;70.80;;;;;;6113963;23;20172;-84
2022/09/28 03:14:19;;;;;;;12.63;10.70;;;19.20;70.90;;;;;;6145635;23;20159;-83
2022/09/28 03:16:55;;;;;;;12.15;10.85;;;19.20;71.00;;;;;;6119627;23;20162;-83
2022/09/28 03:19:39;;;;;;;11.10;10.00;;;19.20;71.00;;;;;;6115799;23;20218;-83
2022/09/28 03:22:18;;;;;;;12.25;10.95;;;19.10;70.90;;;;;;6029648;23;20263;-83
2022/09/28 03:24:54;;;;;;;10.95;9.77;;;19.20;70.90;;;;;;6052021;23;20157;-84
2022/09/28 03:27:51;;;;;;;10.95;9.85;;;19.20;71.00;;;;;;6006716;23;20157;-85
2022/09/28 03:30:52;;;;;;;11.88;10.65;;;19.20;70.90;;;;;;6005203;23;20160;-85
2022/09/28 03:33:37;;;;;;;11.02;9.93;;;19.20;70.90;;;;;;6006544;23;20153;-85
2022/09/28 03:36:10;;;;;;;10.70;9.60;;;19.20;71.20;;;;;;6028770;23;20149;-84
2022/09/28 03:38:39;;;;;;;11.48;10.27;;;19.10;71.10;;;;;;6080627;23;20237;-85
2022/09/28 03:42:02;;;;;;;11.30;10.10;;;19.20;71.20;;;;;;6073194;23;20154;-85
2022/09/28 03:44:07;;;;;;;11.20;9.98;;;19.10;71.20;;;;;;6046476;23;20154;-84
2022/09/28 03:46:55;;;;;;;11.55;10.35;;;19.10;71.20;;;;;;6046818;23;20183;-84
2022/09/28 03:49:27;;;;;;;11.13;9.93;;;19.10;71.20;;;;;;6019252;23;20157;-85
2022/09/28 03:51:56;;;;;;;11.45;10.25;;;19.10;71.20;;;;;;6008551;23;20680;-84
2022/09/28 03:55:16;;;;;;;;;;;;;;;;;;;;;
2022/09/28 03:58:20;;;;;;;13.68;11.15;;;19.20;71.00;;;;;;6046987;23;20183;-84
2022/09/28 04:01:02;;;;;;;11.23;10.13;;;19.10;71.20;;;;;;5923293;24;20275;-85
2022/09/28 04:03:31;;;;;;;11.38;10.18;;;19.10;71.20;;;;;;5944050;23;20155;-84
2022/09/28 04:05:57;;;;;;;12.23;10.70;;;19.10;71.00;;;;;;5939102;23;20184;-84
2022/09/28 04:08:27;;;;;;;11.38;10.18;;;19.10;71.20;;;;;;5940289;23;20231;-84
2022/09/28 04:11:01;;;;;;;12.07;10.27;;;19.10;71.00;;;;;;5940054;23;20243;-85
2022/09/28 04:13:36;;;;;;;11.40;10.20;;;19.10;71.00;;;;;;5916760;24;20156;-84
2022/09/28 04:16:17;;;;;;;11.95;10.30;;;19.10;71.00;;;;;;6085361;23;20156;-82
2022/09/28 04:18:53;;;;;;;11.07;9.90;;;19.20;70.90;;;;;;6164400;23;20191;-82
2022/09/28 04:21:25;;;;;;;10.43;9.38;;;19.20;71.10;;;;;;6115895;23;20206;-82
2022/09/28 04:24:21;;;;;;;11.35;10.13;;;19.10;71.00;;;;;;6164515;23;20156;-82
2022/09/28 04:34:09;;;;;;;12.23;10.05;;;19.10;71.10;;;;;;6144319;23;20140;-83
2022/09/28 04:36:44;;;;;;;11.27;10.07;;;19.10;71.20;;;;;;6097449;23;20167;-83
2022/09/28 04:39:20;;;;;;;11.23;10.13;;;19.20;71.20;;;;;;6117739;23;20211;-83
2022/09/28 04:41:54;;;;;;;11.88;10.25;;;19.10;71.10;;;;;;6139071;23;20175;-83
2022/09/28 04:47:22;;;;;;;11.45;10.25;;;19.10;70.90;;;;;;6011687;23;20152;-83
2022/09/28 04:50:19;;;;;;;11.02;9.88;;;19.10;71.40;;;;;;5894247;23;20247;-83
2022/09/28 04:57:00;;;;;;;11.18;9.43;;;19.10;71.20;;;;;;5964706;24;20167;-83
2022/09/28 05:00:11;;;;;;;10.77;9.15;;;19.10;70.70;;;;;;5941394;24;20156;-84
2022/09/28 05:02:55;;;;;;;9.82;8.82;;;19.10;70.60;;;;;;5964568;23;20156;-83
2022/09/28 05:05:43;;;;;;;10.18;9.10;;;19.10;70.00;;;;;;5963259;24;20160;-84
2022/09/28 05:08:52;;;;;;;9.90;8.70;;;19.10;70.70;;;;;;5922963;23;20172;-84
2022/09/28 05:11:51;;;;;;;8.48;7.60;;;19.10;70.10;;;;;;6063817;23;20168;-83
2022/09/28 05:14:46;;;;;;;8.63;7.70;;;19.10;70.00;;;;;;5924949;23;20172;-83
2022/09/28 05:17:35;;;;;;;8.00;7.20;;;19.10;69.70;;;;;;5940887;23;20254;-84
2022/09/28 05:20:14;;;;;;;7.30;6.60;;;19.20;69.40;;;;;;6056724;23;20153;-84
2022/09/28 05:22:54;;;;;;;7.68;6.93;;;19.20;69.20;;;;;;6054594;23;20612;-84
2022/09/28 05:25:35;;;;;;;7.03;6.32;;;19.20;69.20;;;;;;6119748;23;20173;-84
2022/09/28 05:28:08;;;;;;;7.82;6.90;;;19.20;69.00;;;;;;6079232;23;20164;-84
2022/09/28 05:30:57;;;;;;;7.57;6.80;;;19.20;68.80;;;;;;6084869;23;20833;-84
2022/09/28 05:33:41;;;;;;;6.93;6.22;;;19.20;68.60;;;;;;6040287;23;20173;-84
2022/09/28 05:36:16;;;;;;;7.22;6.22;;;19.20;68.50;;;;;;6063613;23;20157;-84
2022/09/28 05:38:54;;;;;;;6.07;5.47;;;19.20;68.10;;;;;;6065720;23;20607;-84
2022/09/28 05:41:31;;;;;;;6.40;5.60;;;19.20;68.20;;;;;;5988260;23;20180;-83
2022/09/28 05:44:07;;;;;;;6.63;5.93;;;19.20;68.20;;;;;;5991406;23;20149;-83
2022/09/28 05:47:03;;;;;;;6.63;6.03;;;19.20;68.10;;;;;;6059775;23;20181;-83
2022/09/28 05:49:47;;;;;;;6.38;5.78;;;19.20;68.10;;;;;;6059697;23;20156;-83
2022/09/28 05:52:18;;;;;;;6.32;5.70;;;19.20;68.00;;;;;;6084601;23;20137;-83
2022/09/28 05:54:54;;;;;;;6.10;5.50;;;19.30;68.10;;;;;;6084125;23;20165;-83
2022/09/28 05:57:27;;;;;;;6.90;6.20;;;19.30;68.00;;;;;;6084531;23;20160;-83
2022/09/28 06:00:04;;;;;;;6.15;5.55;;;19.20;67.80;;;;;;6040121;23;20534;-84
2022/09/28 06:02:39;;;;;;;6.30;5.68;;;19.20;67.50;;;;;;6094839;23;20211;-83
2022/09/28 06:05:30;;;;;;;6.35;5.75;;;19.20;67.70;;;;;;6078981;23;20225;-83
2022/09/28 06:08:18;;;;;;;6.47;5.57;;;19.20;67.60;;;;;;6051764;23;20159;-82
2022/09/28 06:11:31;;;;;;;6.22;5.63;;;19.20;67.60;;;;;;6026023;23;20306;-82
2022/09/28 06:13:59;;;;;;;5.97;5.38;;;19.20;67.40;;;;;;6045153;23;20158;-84
2022/09/28 06:19:44;;;;;;;6.30;5.70;;;19.20;67.40;;;;;;6043786;23;20238;-85
2022/09/28 06:22:20;;;;;;;5.68;5.07;;;19.30;67.40;;;;;;6050922;23;20205;-84
2022/09/28 06:26:05;;;;;;;5.70;5.20;;;19.20;67.40;;;;;;6065040;23;20584;-86
2022/09/28 06:32:02;;;;;;;6.22;5.15;;;19.30;67.20;;;;;;5985021;24;20245;-83
2022/09/28 06:34:33;;;;;;;5.88;5.28;;;19.30;67.30;;;;;;5963726;24;20166;-85
2022/09/28 06:37:34;;;;;;;;;;;;;;;;;;;;;
2022/09/28 06:40:22;;;;;;;;;;;;;;;;;;;;;
2022/09/28 07:06:44;;;;;;;;;;;;;;;;;;;;;
2022/09/28 07:12:33;;;;;;;4.53;3.95;;;19.40;66.20;;;;;;5897021;24;20149;-86
2022/09/28 07:15:28;;;;;;;4.93;4.38;;;19.40;66.10;;;;;;5860461;24;20158;-85
2022/09/28 07:18:02;;;;;;;4.35;3.95;;;19.40;66.30;;;;;;5813015;24;20333;-86
2022/09/28 07:20:56;;;;;;;4.85;4.45;;;19.50;66.10;;;;;;5838892;24;20182;-85
2022/09/28 07:23:29;;;;;;;4.95;4.13;;;19.40;66.20;;;;;;5816027;24;20226;-85
2022/09/28 07:26:49;;;;;;;4.43;4.03;;;19.40;65.90;;;;;;5791589;24;20180;-86
2022/09/28 07:29:32;;;;;;;3.90;3.53;;;19.40;65.70;;;;;;5762062;24;20176;-86
2022/09/28 07:36:16;;;;;;;3.97;3.58;;;19.40;65.40;;;;;;5685564;25;20171;-86
2022/09/28 07:42:14;;;;;;;3.90;3.50;;;19.40;65.30;;;;;;5696334;25;20175;-85
2022/09/28 07:45:20;;;;;;;;;;;;;;;;;;;;;
2022/09/28 07:48:58;;;;;;;4.28;3.83;;;19.50;65.50;;;;;;5746809;24;20173;-85
2022/09/28 07:51:29;;;;;;;3.67;3.38;;;19.50;65.30;;;;;;5795733;24;20168;-86
2022/09/28 07:54:02;;;;;;;3.80;3.50;;;19.50;65.10;;;;;;5767531;24;20881;-86
2022/09/28 07:56:47;;;;;;;4.15;3.53;;;19.50;65.20;;;;;;5809913;24;20160;-86
2022/09/28 07:59:18;;;;;;;4.18;3.53;;;19.50;65.10;;;;;;5803502;24;20188;-87
2022/09/28 08:02:57;;;;;;;;;;;;;;;;;;;;;
2022/09/28 08:06:39;;;;;;;3.70;3.40;;;19.50;64.90;;;;;;5776862;24;20165;-87
2022/09/28 08:09:29;;;;;;;3.40;3.10;;;19.40;64.50;;;;;;5811786;24;20271;-84
2022/09/28 08:12:18;;;;;;;;;;;;;;;;;;;;;
2022/09/28 08:18:49;;;;;;;;;;;;;;;;;;;;;
2022/09/28 08:25:41;;;;;;;3.50;3.20;;;19.50;64.00;;;;;;5892350;24;20206;-87
2022/09/28 08:29:02;;;;;;;;;;;;;;;;;;;;;
2022/09/28 08:31:30;;;;;;;3.60;3.30;;;19.50;63.60;;;;;;5724576;25;20181;-86
2022/09/28 08:41:18;;;;;;;4.80;2.90;;;19.50;65.00;;;;;;5812357;24;20316;-83
2022/09/28 08:44:14;;;;;;;3.30;3.00;;;19.60;64.00;;;;;;5709574;25;20565;-84
2022/09/28 08:50:25;;;;;;;4.07;2.78;;;19.60;63.70;;;;;;5780238;24;20245;-83
2022/09/28 08:53:12;;;;;;;3.10;2.80;;;19.60;63.20;;;;;;5696756;25;20167;-83
2022/09/28 08:56:13;;;;;;;4.38;3.08;;;19.60;63.90;;;;;;5738621;25;20208;-83
2022/09/28 08:59:05;;;;;;;4.53;3.38;;;19.60;63.50;;;;;;5728110;25;20197;-85
2022/09/28 09:01:45;;;;;;;6.38;3.25;;;19.60;64.30;;;;;;5763073;24;20170;-85
2022/09/28 09:04:50;;;;;;;;;;;;;;;;;;;;;
2022/09/28 09:08:07;;;;;;;3.30;3.00;;;19.60;63.10;;;;;;5757183;25;20165;-84
2022/09/28 09:11:33;;;;;;;3.80;3.20;;;19.60;63.10;;;;;;5777422;24;20223;-85
2022/09/28 09:15:14;;;;;;;6.43;3.40;;;19.60;62.80;;;;;;5782895;24;20154;-84
2022/09/28 09:17:58;;;;;;;4.45;2.63;;;19.60;62.70;;;;;;5937521;23;20509;-86
2022/09/28 09:21:14;;;;;;;3.17;2.88;;;19.60;62.60;;;;;;5965357;23;20149;-86
2022/09/28 09:24:11;;;;;;;3.50;2.40;;;19.60;62.50;;;;;;5985730;23;20199;-85
2022/09/28 09:26:46;;;;;;;4.15;2.50;;;19.60;62.50;;;;;;6034837;23;20161;-85
2022/09/28 09:29:49;;;;;;;;;;;;;;;;;;;;;
2022/09/28 09:32:55;;;;;;;;;;;;;;;;;;;;;
2022/09/28 09:46:51;;;;;;;3.00;2.70;;;19.60;61.80;;;;;;6002626;23;20211;-85
2022/09/28 09:50:11;;;;;;;3.08;2.58;;;19.50;61.70;;;;;;5950367;24;20211;-84
2022/09/28 09:56:49;;;;;;;3.35;2.50;;;19.50;61.70;;;;;;5941060;24;20199;-85
2022/09/28 09:59:47;;;;;;;2.58;2.30;;;19.50;61.40;;;;;;5905051;24;20187;-86
2022/09/28 10:02:47;;;;;;;2.78;2.55;;;19.50;61.20;;;;;;5920957;24;20163;-85
2022/09/28 10:05:38;;;;;;;2.95;2.20;;;19.50;61.00;;;;;;5843076;24;20199;-85
2022/09/28 10:08:30;;;;;;;3.13;2.40;;;19.50;61.00;;;;;;5845197;24;20167;-85
2022/09/28 10:11:44;;;;;;;2.22;2.03;;;19.50;61.00;;;;;;5891835;24;20236;-85
2022/09/28 10:14:22;;;;;;;4.95;2.40;;;19.50;60.80;;;;;;5874565;24;20220;-85
2022/09/28 10:17:01;;;;;;;2.35;2.15;;;19.50;60.90;;;;;;5969112;24;20167;-85
2022/09/28 10:19:36;;;;;;;2.60;2.40;;;19.50;60.80;;;;;;5892611;24;20204;-86
2022/09/28 10:22:22;;;;;;;3.75;2.50;;;19.50;60.80;;;;;;5896088;24;20194;-84
2022/09/28 10:25:31;;;;;;;2.60;2.40;;;19.50;60.80;;;;;;5870902;24;20258;-86
2022/09/28 10:28:12;;;;;;;3.53;2.58;;;19.50;60.70;;;;;;5890698;24;20183;-85
2022/09/28 10:30:50;;;;;;;3.40;2.45;;;19.50;60.50;;;;;;5983849;23;20154;-86
2022/09/28 10:33:44;;;;;;;4.18;2.50;;;19.50;60.60;;;;;;5976299;24;20163;-85
2022/09/28 10:36:14;;;;;;;3.03;2.50;;;19.50;60.70;;;;;;5932835;24;20535;-85
2022/09/28 10:41:39;;;;;;;3.25;2.42;;;19.50;60.40;;;;;;6324757;22;20199;-86
2022/09/28 10:44:13;;;;;;;2.85;2.25;;;19.50;60.30;;;;;;6298561;22;20155;-84
2022/09/28 10:46:47;;;;;;;2.55;2.35;;;19.50;60.30;;;;;;6224692;22;20147;-83
2022/09/28 10:49:20;;;;;;;2.78;2.40;;;19.50;60.30;;;;;;6242650;22;20210;-86
2022/09/28 10:52:36;;;;;;;2.47;2.28;;;19.60;60.20;;;;;;6208794;23;20217;-85
2022/09/28 10:55:26;;;;;;;3.60;2.63;;;19.60;60.20;;;;;;6185415;23;20662;-86
2022/09/28 10:58:18;;;;;;;2.53;2.33;;;19.60;60.40;;;;;;6156367;23;20204;-85
2022/09/28 11:00:49;;;;;;;2.55;2.20;;;19.60;60.10;;;;;;6176566;23;20158;-86
2022/09/28 11:06:59;;;;;;;2.92;2.65;;;19.60;60.00;;;;;;6082951;23;20236;-85
2022/09/28 11:09:42;;;;;;;2.38;2.17;;;19.60;60.10;;;;;;6002754;23;20469;-84
2022/09/28 11:12:48;;;;;;;3.05;2.70;;;19.60;60.10;;;;;;6009295;23;20153;-86
2022/09/28 11:36:37;;;;;;;4.13;2.45;;;19.70;59.20;;;;;;6318974;22;20203;-83
2022/09/28 11:39:27;;;;;;;3.00;2.40;;;19.60;59.20;;;;;;6270275;22;20627;-84
2022/09/28 11:42:01;;;;;;;2.33;2.13;;;19.70;59.00;;;;;;6241068;22;20171;-83
2022/09/28 11:44:50;;;;;;;2.45;2.22;;;19.70;58.80;;;;;;6216624;22;20147;-85
2022/09/28 11:47:51;;;;;;;2.30;2.10;;;19.70;58.70;;;;;;6156075;23;20180;-84
2022/09/28 11:50:54;;;;;;;;;;;;;;;;;;;;;
2022/09/28 11:54:13;;;;;;;;;;;;;;;;;;;;;
2022/09/28 11:56:59;;;;;;;2.63;2.20;;;19.60;58.40;;;;;;6084608;23;20380;-86
2022/09/28 11:59:49;;;;;;;2.67;2.10;;;19.70;58.30;;;;;;6023981;23;20189;-85
2022/09/28 12:19:39;;;;;;;1.58;1.48;;;19.70;57.70;;;;;;5852368;24;20247;-84
2022/09/28 12:23:09;;;;;;;;;;;;;;;;;;;;;
2022/09/28 12:25:47;;;;;;;3.78;2.13;;;19.70;57.70;;;;;;5809465;24;20223;-84
2022/09/28 12:29:05;;;;;;;;;;;;;;;;;;;;;
2022/09/28 12:32:36;;;;;;;2.20;2.00;;;19.70;57.00;;;;;;5726540;25;20295;-83
2022/09/28 14:08:47;;;;;;;1.88;1.70;;;19.80;54.50;;;;;;6323010;22;20217;-84
2022/09/28 14:11:42;;;;;;;1.90;1.70;;;19.80;54.30;;;;;;6282316;22;20144;-85
2022/09/28 14:20:56;;;;;;;1.60;1.42;;;19.70;53.90;;;;;;6235203;23;20172;-85
2022/09/28 14:24:12;;;;;;;1.70;1.50;;;19.80;53.80;;;;;;6172708;23;20181;-85
2022/09/28 14:27:21;;;;;;;1.30;1.20;;;19.80;53.60;;;;;;6182646;23;20157;-85
2022/09/28 14:30:34;;;;;;;1.60;1.48;;;19.80;53.40;;;;;;6115920;23;20169;-85
2022/09/28 14:33:19;;;;;;;2.40;1.48;;;19.80;53.20;;;;;;6142565;23;20163;-85
2022/09/28 14:36:05;;;;;;;1.70;1.48;;;19.80;53.00;;;;;;6193996;23;20155;-85
2022/09/28 14:42:40;;;;;;;2.40;1.38;;;19.80;52.80;;;;;;6060332;23;20221;-83
2022/09/28 14:48:53;;;;;;;1.77;1.50;;;19.80;52.60;;;;;;6029078;23;20222;-85
2022/09/28 14:55:28;;;;;;;1.40;1.30;;;19.70;52.40;;;;;;6082485;23;20157;-85
2022/09/28 15:01:49;;;;;;;1.38;1.27;;;19.80;52.30;;;;;;6068927;23;20153;-85
2022/09/28 15:04:59;;;;;;;1.85;1.40;;;19.80;52.40;;;;;;6045032;23;20153;-85
2022/09/28 15:08:12;;;;;;;1.30;1.20;;;19.80;52.50;;;;;;6015613;23;20153;-85
2022/09/28 15:10:37;;;;;;;1.60;1.50;;;19.80;52.50;;;;;;6073106;23;20200;-87
2022/09/28 15:13:26;;;;;;;1.40;1.30;;;19.80;52.60;;;;;;6082438;23;20161;-86
2022/09/28 16:30:26;;;;;;;1.77;1.67;;;19.80;55.10;;;;;;6312341;22;20203;-84
2022/09/28 17:02:16;;;;;;;1.92;1.83;;;19.70;55.80;;;;;;6316424;22;20434;-85
2022/09/28 17:05:19;;;;;;;1.80;1.70;;;19.80;56.00;;;;;;6239280;23;20154;-84
2022/09/28 17:34:26;;;;;;;;;;;;;;;;;;;;;
2022/09/28 17:37:44;;;;;;;2.20;1.95;;;19.80;56.40;;;;;;6303482;22;20163;-87
2022/09/28 17:41:15;;;;;;;2.30;2.10;;;19.80;56.30;;;;;;6265412;23;20173;-86
2022/09/28 17:44:36;;;;;;;2.00;1.90;;;19.80;56.30;;;;;;6240588;23;20154;-86
2022/09/28 17:53:30;;;;;;;6.72;2.60;;;19.80;56.30;;;;;;6319607;22;20418;-86
2022/09/28 17:56:31;;;;;;;3.42;2.28;;;19.80;56.40;;;;;;6300209;22;20173;-87
2022/09/28 17:59:54;;;;;;;2.50;2.30;;;19.80;56.40;;;;;;6238041;23;20191;-86
2022/09/28 18:03:17;;;;;;;3.10;2.10;;;19.80;56.30;;;;;;5997370;24;20151;-86
2022/09/28 18:06:14;;;;;;;3.45;2.20;;;19.80;56.30;;;;;;5895594;24;20161;-86
2022/09/28 18:09:23;;;;;;;2.65;2.00;;;19.80;56.40;;;;;;5889244;24;20189;-86
2022/09/28 18:12:25;;;;;;;3.03;2.17;;;19.80;56.50;;;;;;5858564;24;20573;-86
2022/09/28 18:15:43;;;;;;;2.75;1.98;;;19.80;56.50;;;;;;5835325;24;20184;-86
2022/09/28 18:18:19;;;;;;;3.33;2.45;;;19.80;56.40;;;;;;5753687;25;20189;-86
2022/09/28 18:21:12;;;;;;;2.78;2.28;;;19.80;56.50;;;;;;5735123;25;20161;-86
2022/09/28 18:23:51;;;;;;;4.03;2.42;;;19.80;56.50;;;;;;5684646;25;20170;-86
2022/09/28 18:26:40;;;;;;;5.57;2.40;;;19.80;56.50;;;;;;5685054;25;20163;-86
2022/09/28 18:29:28;;;;;;;2.80;2.40;;;19.80;56.60;;;;;;5663685;25;20240;-86
2022/09/28 18:32:12;;;;;;;2.50;2.30;;;19.80;56.60;;;;;;5705069;25;20242;-86
2022/09/28 18:34:41;;;;;;;4.38;2.40;;;19.80;56.70;;;;;;5720973;25;20172;-86
2022/09/28 18:37:31;;;;;;;3.25;2.22;;;19.80;56.80;;;;;;5756509;25;20203;-86
2022/09/28 18:40:07;;;;;;;3.80;2.47;;;19.80;56.80;;;;;;5779113;24;20171;-85
2022/09/28 18:43:20;;;;;;;5.82;2.58;;;19.80;56.90;;;;;;5777549;24;20165;-85
2022/09/28 18:46:05;;;;;;;5.30;2.72;;;19.80;56.90;;;;;;5777396;24;20248;-86
2022/09/28 18:48:40;;;;;;;3.38;2.60;;;19.80;57.00;;;;;;5829068;24;20165;-85
2022/09/28 18:51:08;;;;;;;6.38;2.42;;;19.80;57.00;;;;;;5911197;24;20204;-86
2022/09/28 18:53:49;;;;;;;3.80;2.28;;;19.80;57.00;;;;;;5865376;24;20164;-86
2022/09/28 18:56:31;;;;;;;4.68;2.60;;;19.70;56.90;;;;;;5833329;24;20166;-86
2022/09/28 18:59:05;;;;;;;5.00;2.40;;;19.70;56.90;;;;;;5836036;24;20191;-86
2022/09/28 19:01:36;;;;;;;3.22;2.85;;;19.80;57.00;;;;;;5863629;24;20157;-86
2022/09/28 19:04:20;;;;;;;4.38;2.30;;;19.70;56.90;;;;;;5848900;24;20206;-86
2022/09/28 19:06:55;;;;;;;2.55;2.28;;;19.70;56.90;;;;;;5899710;24;20154;-86
2022/09/28 19:09:28;;;;;;;5.57;2.55;;;19.70;56.90;;;;;;5933744;24;20157;-86
2022/09/28 19:12:07;;;;;;;3.40;2.28;;;19.70;56.90;;;;;;5912631;24;20157;-86
2022/09/28 19:14:38;;;;;;;3.92;2.65;;;19.70;56.90;;;;;;5913181;24;20221;-86
2022/09/28 19:17:14;;;;;;;3.65;2.60;;;19.70;56.90;;;;;;5884307;24;20173;-86
2022/09/28 19:19:59;;;;;;;4.05;2.50;;;19.70;57.00;;;;;;5902985;24;20187;-86
2022/09/28 19:22:40;;;;;;;10.60;2.90;;;19.70;56.90;;;;;;5916290;24;20161;-86
2022/09/28 19:25:15;;;;;;;2.78;2.58;;;19.70;56.90;;;;;;5911263;24;20249;-86
2022/09/28 19:27:56;;;;;;;2.65;2.40;;;19.70;56.90;;;;;;5909952;24;20175;-86
2022/09/28 19:30:37;;;;;;;3.45;2.08;;;19.80;57.00;;;;;;5965106;23;20154;-86
2022/09/28 19:33:11;;;;;;;5.03;2.50;;;19.70;56.80;;;;;;5995337;23;20634;-86
2022/09/28 19:35:43;;;;;;;5.78;2.50;;;19.70;56.80;;;;;;5999726;23;20192;-86
2022/09/28 19:38:22;;;;;;;2.67;2.40;;;19.70;56.70;;;;;;6083246;23;20196;-86
2022/09/28 19:43:58;;;;;;;3.08;2.38;;;19.70;56.70;;;;;;6049345;23;20589;-86
2022/09/28 19:46:52;;;;;;;3.33;2.47;;;19.60;56.60;;;;;;6032321;23;20213;-86
2022/09/28 19:49:32;;;;;;;6.15;2.70;;;19.60;56.60;;;;;;6042292;23;20158;-86
2022/09/28 19:52:33;;;;;;;3.20;2.47;;;19.70;57.20;;;;;;6029635;23;20201;-86
2022/09/28 19:55:23;;;;;;;3.92;2.60;;;19.60;56.40;;;;;;6030388;23;20161;-86
2022/09/28 19:58:04;;;;;;;3.78;2.30;;;19.70;56.50;;;;;;5931186;23;20164;-86
2022/09/28 20:00:42;;;;;;;3.90;2.47;;;19.70;56.40;;;;;;5999685;23;20171;-86
2022/09/28 20:03:13;;;;;;;3.03;2.80;;;19.70;57.00;;;;;;6020500;23;20154;-86
2022/09/28 20:05:45;;;;;;;2.97;2.65;;;19.70;56.40;;;;;;5975105;23;20179;-86
2022/09/28 20:08:20;;;;;;;4.97;2.63;;;19.60;56.30;;;;;;5998350;23;20659;-86
2022/09/28 20:10:55;;;;;;;2.67;2.47;;;19.60;56.30;;;;;;5948077;24;20159;-86
2022/09/28 20:13:33;;;;;;;2.97;2.50;;;19.60;56.30;;;;;;5990878;23;20157;-86
2022/09/28 20:16:04;;;;;;;2.95;2.65;;;19.70;56.40;;;;;;6048178;23;20215;-86
2022/09/28 20:18:34;;;;;;;2.60;2.40;;;19.60;56.30;;;;;;6001454;23;20202;-87
2022/09/28 20:21:05;;;;;;;3.13;2.58;;;19.60;56.30;;;;;;5996379;23;20156;-86
2022/09/28 20:23:36;;;;;;;4.00;2.60;;;19.60;56.30;;;;;;6010765;23;20150;-86
2022/09/28 20:26:10;;;;;;;3.83;2.63;;;19.60;56.20;;;;;;6004015;23;20204;-86
2022/09/28 20:28:44;;;;;;;3.10;2.80;;;19.60;56.20;;;;;;6038524;23;20191;-86
2022/09/28 20:31:19;;;;;;;2.88;2.30;;;19.60;56.20;;;;;;6085944;23;20183;-86
2022/09/28 20:33:46;;;;;;;2.40;2.20;;;19.60;56.20;;;;;;6108911;23;20160;-86
2022/09/28 20:36:30;;;;;;;3.67;2.50;;;19.60;56.20;;;;;;6056170;23;20172;-86
2022/09/28 20:39:03;;;;;;;3.42;2.65;;;19.60;56.20;;;;;;6056692;23;20541;-86
2022/09/28 20:41:42;;;;;;;2.72;2.50;;;19.60;56.20;;;;;;6044126;23;20216;-85
2022/09/28 20:44:15;;;;;;;2.58;2.28;;;19.60;56.20;;;;;;6087138;23;20149;-85
2022/09/28 20:46:55;;;;;;;3.13;2.83;;;19.60;56.20;;;;;;6062947;23;20153;-86
2022/09/28 20:49:23;;;;;;;4.03;2.92;;;19.60;56.20;;;;;;6112068;23;20163;-86
2022/09/28 20:51:53;;;;;;;4.47;3.00;;;19.50;56.60;;;;;;6087594;23;20220;-86
2022/09/28 20:54:22;;;;;;;3.20;2.88;;;19.50;56.70;;;;;;6087114;23;20160;-86
2022/09/28 20:56:56;;;;;;;5.88;3.30;;;19.50;56.70;;;;;;6053382;23;20158;-86
2022/09/28 20:59:31;;;;;;;3.35;3.05;;;19.50;56.90;;;;;;6065513;23;20253;-86
2022/09/28 21:02:01;;;;;;;3.72;3.13;;;19.50;57.00;;;;;;6058723;23;20153;-86
2022/09/28 21:04:41;;;;;;;4.13;3.10;;;19.50;56.90;;;;;;5985552;24;20266;-86
2022/09/28 21:07:09;;;;;;;4.32;3.20;;;19.50;57.10;;;;;;5922971;24;20167;-86
2022/09/28 21:09:44;;;;;;;3.80;3.40;;;19.50;57.10;;;;;;5923366;24;20191;-86
2022/09/28 21:12:14;;;;;;;3.80;3.05;;;19.50;57.20;;;;;;5923677;24;20163;-86
2022/09/28 21:14:42;;;;;;;4.50;3.28;;;19.50;57.20;;;;;;5948714;24;20199;-86
2022/09/28 21:17:42;;;;;;;4.07;3.28;;;19.50;57.10;;;;;;5940923;24;20160;-86
2022/09/28 21:20:16;;;;;;;5.88;3.58;;;19.50;57.20;;;;;;5890141;24;20197;-86
2022/09/28 21:22:43;;;;;;;4.43;3.70;;;19.50;57.30;;;;;;5968530;24;20263;-86
2022/09/28 21:25:30;;;;;;;3.80;3.40;;;19.50;57.40;;;;;;5963840;24;20160;-86
2022/09/28 21:27:57;;;;;;;4.63;3.58;;;19.50;57.40;;;;;;5986896;23;20151;-86
2022/09/28 21:30:23;;;;;;;4.57;3.70;;;19.50;57.50;;;;;;6024325;23;20182;-86
2022/09/28 21:33:00;;;;;;;3.80;3.42;;;19.50;57.40;;;;;;6024653;23;20154;-86
2022/09/28 21:35:35;;;;;;;4.75;3.08;;;19.50;57.60;;;;;;6000549;23;20175;-86
2022/09/28 21:38:08;;;;;;;5.05;3.35;;;19.40;57.30;;;;;;6000988;23;20189;-86
2022/09/28 21:41:00;;;;;;;5.78;3.70;;;19.40;57.60;;;;;;6000746;23;20161;-86
2022/09/28 21:43:34;;;;;;;4.40;3.40;;;19.40;57.70;;;;;;5963634;23;20176;-85
2022/09/28 21:46:01;;;;;;;3.97;3.58;;;19.40;57.70;;;;;;5890104;23;20215;-85
2022/09/28 21:48:54;;;;;;;3.95;3.47;;;19.40;57.80;;;;;;5944703;23;20581;-85
2022/09/28 21:51:22;;;;;;;4.28;3.15;;;19.40;58.00;;;;;;5981847;23;20158;-86
2022/09/28 21:53:54;;;;;;;3.60;3.20;;;19.40;58.00;;;;;;6092026;23;20159;-86
2022/09/28 21:56:25;;;;;;;3.83;3.33;;;19.40;57.90;;;;;;6076346;23;20151;-85
2022/09/28 21:58:55;;;;;;;3.72;3.42;;;19.40;58.00;;;;;;6149447;23;20750;-86
2022/09/28 22:01:26;;;;;;;5.15;3.22;;;19.40;57.90;;;;;;6139567;23;20152;-85
2022/09/28 22:03:58;;;;;;;4.53;3.45;;;19.50;57.90;;;;;;6072546;23;20155;-86
2022/09/28 22:06:27;;;;;;;4.75;3.63;;;19.30;57.80;;;;;;6149414;23;20189;-85
2022/09/28 22:08:56;;;;;;;6.22;3.60;;;19.40;57.90;;;;;;6149617;23;20161;-87
2022/09/28 22:11:24;;;;;;;4.38;3.00;;;19.40;57.80;;;;;;6125189;23;20155;-85
2022/09/28 22:13:56;;;;;;;3.95;3.30;;;19.40;58.50;;;;;;6149471;23;20177;-86
2022/09/28 22:16:32;;;;;;;3.67;3.28;;;19.30;57.90;;;;;;6101880;23;20162;-85